Oldsmar, Florida
Current Conditions -  °F | °C
As of 12:35 AM on Monday 22 Dec 2014 (Local Time) from KCLW Reporting Station
Light Rain Light Rain  
Wind Chill: 64°   Ceiling: 2700
Heat Index: 64°   Visibility: 7mi
Dew Point: 64°   Wind: 5mph
Humidity: 100%   Direction: 110°ESE
Pressure: 30.01"   Gusts: NA
Location:  28.04°N, 82.66°W
Report Text: KCLW 220535Z AUTO 11004KT 7SM -RA SCT007 BKN027 OVC046 18/18 A3001 RMK AO2 P0001
Loading
Personal Weather Stations






























Interactive Weather Map New forecast layout! Learn more

10-Day Weather Forecast

Advertisements
Track Severe Weather on mobile